createdAt,value
2019-02-03T00:01:32.175Z,86.47
2019-02-03T00:04:00.698Z,87.50
2019-02-03T00:06:29.223Z,103.17
2019-02-03T00:08:58.155Z,96.13
2019-02-03T00:11:26.682Z,107.90
2019-02-03T00:13:55.141Z,113.83
2019-02-03T00:16:23.641Z,117.67
2019-02-03T00:18:52.103Z,125.60
2019-02-03T00:21:20.536Z,123.10
2019-02-03T00:23:49.374Z,127.37
2019-02-03T00:26:17.985Z,127.87
2019-02-03T00:28:46.768Z,140.07
2019-02-03T00:31:15.255Z,134.37
2019-02-03T00:33:43.776Z,121.63
2019-02-03T00:36:12.229Z,132.93
2019-02-03T00:38:40.764Z,132.13
2019-02-03T00:41:09.304Z,135.07
2019-02-03T00:43:37.887Z,123.93
2019-02-03T00:46:06.719Z,119.50
2019-02-03T00:48:35.227Z,113.00
2019-02-03T00:51:04.572Z,119.33
2019-02-03T00:53:33.084Z,117.17
2019-02-03T00:56:20.964Z,104.80
2019-02-03T00:58:49.491Z,107.93
2019-02-03T01:01:18.014Z,114.57
2019-02-03T01:03:46.523Z,105.63
2019-02-03T01:06:15.017Z,105.97
2019-02-03T01:08:45.815Z,108.73
2019-02-03T01:11:14.263Z,104.67
2019-02-03T01:13:42.739Z,107.20
2019-02-03T01:16:11.528Z,100.53
2019-02-03T01:18:39.987Z,103.97
2019-02-03T01:21:08.425Z,89.70
2019-02-03T01:23:56.215Z,92.50
2019-02-03T01:26:24.899Z,95.67
2019-02-03T01:28:53.611Z,92.50
2019-02-03T01:31:22.059Z,92.33
2019-02-03T01:34:09.852Z,85.53
2019-02-03T01:36:38.290Z,86.03
2019-02-03T01:39:08.797Z,95.97
2019-02-03T01:41:37.314Z,88.03
2019-02-03T01:44:05.910Z,92.40
2019-02-03T01:46:34.423Z,85.80
2019-02-03T01:49:02.884Z,96.43
2019-02-03T01:51:31.695Z,92.70
2019-02-03T01:54:00.806Z,94.77
2019-02-03T01:56:29.324Z,92.13
2019-02-03T01:58:57.786Z,99.27
2019-02-03T02:01:26.322Z,88.90
2019-02-03T02:03:54.854Z,99.97
2019-02-03T02:06:23.684Z,89.50
2019-02-03T02:08:52.200Z,93.70
2019-02-03T02:11:20.718Z,98.13
2019-02-03T02:13:49.222Z,91.80
2019-02-03T02:16:17.698Z,97.03
2019-02-03T02:18:46.147Z,98.50
2019-02-03T02:21:14.955Z,101.17
2019-02-03T02:23:43.390Z,102.93
2019-02-03T02:26:11.895Z,93.90
2019-02-03T02:28:40.372Z,100.47
2019-02-03T02:31:10.917Z,102.17
2019-02-03T02:33:39.376Z,96.10
2019-02-03T02:36:08.088Z,111.40
2019-02-03T02:38:42.403Z,94.90
2019-02-03T02:41:10.851Z,97.77
2019-02-03T02:43:39.325Z,100.03
2019-02-03T02:46:07.899Z,102.33
2019-02-03T02:48:36.372Z,112.07
2019-02-03T02:51:04.871Z,93.00
2019-02-03T02:53:33.325Z,93.13
2019-02-03T02:56:10.572Z,88.53
2019-02-03T02:58:39.984Z,84.10
2019-02-03T03:01:08.562Z,94.17
2019-02-03T03:03:44.024Z,92.90
2019-02-03T03:06:12.538Z,98.20
2019-02-03T03:08:41.055Z,91.17
2019-02-03T03:11:28.836Z,91.33
2019-02-03T03:13:57.286Z,93.43
2019-02-03T03:16:27.812Z,80.53
2019-02-03T03:18:56.336Z,91.30
2019-02-03T03:21:24.779Z,100.93
2019-02-03T03:23:53.312Z,108.53
2019-02-03T03:26:21.943Z,108.70
2019-02-03T03:28:50.539Z,126.67
2019-02-03T03:31:25.778Z,122.93
2019-02-03T03:33:54.232Z,126.30
2019-02-03T03:36:22.676Z,123.07
2019-02-03T03:38:51.549Z,136.53
2019-02-03T03:41:20.072Z,128.17
2019-02-03T03:43:48.639Z,138.73
2019-02-03T03:46:17.082Z,124.90
2019-02-03T03:48:45.534Z,122.37
2019-02-03T03:51:14.145Z,107.87
2019-02-03T03:53:42.888Z,118.90
2019-02-03T03:56:11.322Z,126.47
2019-02-03T03:58:59.286Z,114.13
2019-02-03T04:01:27.724Z,130.90
2019-02-03T04:03:56.727Z,114.93
2019-02-03T04:06:25.208Z,115.30
2019-02-03T04:08:53.723Z,127.80
2019-02-03T04:11:22.319Z,121.93
2019-02-03T04:13:50.824Z,118.20
2019-02-03T04:16:19.281Z,122.63
2019-02-03T04:18:48.174Z,119.93
2019-02-03T04:21:16.699Z,114.40
2019-02-03T04:23:45.135Z,111.30
2019-02-03T04:26:13.766Z,114.60
2019-02-03T04:28:42.266Z,120.10
2019-02-03T04:31:30.056Z,114.07
2019-02-03T04:33:58.492Z,108.90
2019-02-03T04:36:26.957Z,115.13
2019-02-03T04:38:58.373Z,114.83
2019-02-03T04:41:25.652Z,122.10
2019-02-03T04:43:54.585Z,116.13
2019-02-03T04:46:23.043Z,107.87
2019-02-03T04:48:51.488Z,119.87
2019-02-03T04:51:19.995Z,106.10
2019-02-03T04:53:48.449Z,95.93
2019-02-03T04:56:16.891Z,105.27
2019-02-03T04:58:45.623Z,106.60
2019-02-03T05:01:14.069Z,104.23
2019-02-03T05:03:42.596Z,107.53
2019-02-03T05:06:11.038Z,95.57
2019-02-03T05:08:39.561Z,94.40
2019-02-03T05:11:08.170Z,95.33
2019-02-03T05:13:37.018Z,101.63
2019-02-03T05:16:05.592Z,97.33
2019-02-03T05:18:34.048Z,105.23
2019-02-03T05:21:02.562Z,103.77
2019-02-03T05:23:31.106Z,102.40
2019-02-03T05:25:59.613Z,104.23
2019-02-03T05:28:28.570Z,105.33
2019-02-03T05:30:57.074Z,100.20
2019-02-03T05:33:25.544Z,101.73
2019-02-03T05:35:53.987Z,106.43
2019-02-03T05:38:22.441Z,119.60
2019-02-03T05:40:50.909Z,100.27
2019-02-03T05:43:20.171Z,95.90
2019-02-03T05:45:48.634Z,98.90
2019-02-03T05:48:17.220Z,101.57
2019-02-03T05:50:45.668Z,104.90
2019-02-03T05:53:14.117Z,120.30
2019-02-03T05:55:42.653Z,112.30
2019-02-03T05:58:11.468Z,109.87
2019-02-03T06:00:40.704Z,111.30
2019-02-03T06:03:09.219Z,109.93
2019-02-03T06:05:37.684Z,112.27
2019-02-03T06:08:06.260Z,111.37
2019-02-03T06:10:34.716Z,120.20
2019-02-03T06:13:03.167Z,105.10
2019-02-03T06:15:31.961Z,126.63
2019-02-03T06:18:00.474Z,112.13
2019-02-03T06:20:28.939Z,118.90
2019-02-03T06:22:57.372Z,109.87
2019-02-03T06:25:25.897Z,110.07
2019-02-03T06:27:54.464Z,111.03
2019-02-03T06:30:26.128Z,108.20
2019-02-03T06:32:54.676Z,109.47
2019-02-03T06:35:23.175Z,109.07
2019-02-03T06:37:51.612Z,108.07
2019-02-03T06:40:20.528Z,111.10
2019-02-03T06:42:48.981Z,129.57
2019-02-03T06:45:19.092Z,112.63
2019-02-03T06:47:47.614Z,113.70
2019-02-03T06:50:16.052Z,102.60
2019-02-03T06:52:44.601Z,105.73
2019-02-03T06:55:13.482Z,102.80
2019-02-03T06:57:41.931Z,89.20
2019-02-03T07:00:13.131Z,100.67
2019-02-03T07:02:41.652Z,97.53
2019-02-03T07:05:10.396Z,96.77
2019-02-03T07:07:39.021Z,95.70
2019-02-03T07:10:11.977Z,100.90
2019-02-03T07:12:40.503Z,87.60
2019-02-03T07:15:10.855Z,97.50
2019-02-03T07:17:39.325Z,91.97
2019-02-03T07:20:15.561Z,93.10
2019-02-03T07:22:44.011Z,105.10
2019-02-03T07:25:12.892Z,108.90
2019-02-03T07:27:41.364Z,104.13
2019-02-03T07:30:18.529Z,104.67
2019-02-03T07:32:47.072Z,93.13
2019-02-03T07:35:15.663Z,102.43
2019-02-03T07:37:44.242Z,97.10
2019-02-03T07:40:20.960Z,97.17
2019-02-03T07:42:49.404Z,102.33
2019-02-03T07:45:17.918Z,103.57
2019-02-03T07:48:05.967Z,94.87
2019-02-03T07:50:34.568Z,95.13
2019-02-03T07:53:03.073Z,93.80
2019-02-03T07:55:31.527Z,90.63
2019-02-03T07:58:00.360Z,91.13
2019-02-03T08:00:28.893Z,83.27
2019-02-03T08:02:58.386Z,81.20
2019-02-03T08:05:26.928Z,86.93
2019-02-03T08:07:55.439Z,90.87
2019-02-03T08:10:28.862Z,83.03
2019-02-03T08:12:55.280Z,83.77
2019-02-03T08:15:23.795Z,73.00
2019-02-03T08:18:11.641Z,87.00
2019-02-03T08:20:40.411Z,82.90
2019-02-03T08:23:08.993Z,75.43
2019-02-03T08:25:56.871Z,77.03
2019-02-03T08:28:25.488Z,86.00
2019-02-03T08:30:53.943Z,78.87
2019-02-03T08:33:41.794Z,73.20
2019-02-03T08:36:11.295Z,81.70
2019-02-03T08:38:39.743Z,77.57
2019-02-03T08:41:08.248Z,81.93
2019-02-03T08:43:36.696Z,82.00
2019-02-03T08:46:05.679Z,85.00
2019-02-03T08:48:34.178Z,78.97
2019-02-03T08:51:02.712Z,78.97
2019-02-03T08:53:40.418Z,82.60
2019-02-03T08:56:10.035Z,76.17
2019-02-03T08:58:38.847Z,75.37
2019-02-03T09:01:16.352Z,77.73
2019-02-03T09:03:44.829Z,77.87
2019-02-03T09:06:13.292Z,74.70
2019-02-03T09:08:42.645Z,77.40
2019-02-03T09:11:11.579Z,75.17
2019-02-03T09:13:46.107Z,67.20
2019-02-03T09:16:14.551Z,74.83
2019-02-03T09:18:42.988Z,74.10
2019-02-03T09:21:11.442Z,71.37
2019-02-03T09:23:39.884Z,59.43
2019-02-03T09:26:08.799Z,64.80
2019-02-03T09:28:37.412Z,71.07
2019-02-03T09:31:06.004Z,68.37
2019-02-03T09:33:34.437Z,62.63
2019-02-03T09:36:03.048Z,61.03
2019-02-03T09:38:39.638Z,60.13
2019-02-03T09:41:08.299Z,57.97
2019-02-03T09:43:36.747Z,59.90
2019-02-03T09:46:06.387Z,53.30
2019-02-03T09:48:34.827Z,55.30
2019-02-03T09:51:03.295Z,46.57
2019-02-03T09:53:32.019Z,52.67
2019-02-03T09:56:19.896Z,42.70
2019-02-03T09:58:48.402Z,45.33
2019-02-03T10:01:16.860Z,49.63
2019-02-03T10:03:45.471Z,55.60
2019-02-03T10:06:13.908Z,49.53
2019-02-03T10:08:42.434Z,47.80
2019-02-03T10:11:12.274Z,41.80
2019-02-03T10:13:41.108Z,37.13
2019-02-03T10:16:09.621Z,40.53
2019-02-03T10:18:38.600Z,42.47
2019-02-03T10:21:07.030Z,47.73
2019-02-03T10:23:35.487Z,38.00
2019-02-03T10:26:04.482Z,38.53
2019-02-03T10:28:33.210Z,44.13
2019-02-03T10:31:01.670Z,43.47
2019-02-03T10:33:30.574Z,35.60
2019-02-03T10:35:59.158Z,33.13
2019-02-03T10:38:27.921Z,31.10
2019-02-03T10:40:56.467Z,33.60
2019-02-03T10:43:25.235Z,31.53
2019-02-03T10:45:53.726Z,32.47
2019-02-03T10:48:23.354Z,34.73
2019-02-03T10:50:51.857Z,30.13
2019-02-03T10:53:20.590Z,33.40
2019-02-03T10:55:49.113Z,30.47
2019-02-03T10:58:17.624Z,22.67
2019-02-03T11:00:46.166Z,29.77
2019-02-03T11:03:14.668Z,22.60
2019-02-03T11:05:46.234Z,24.43
2019-02-03T11:08:14.894Z,30.33
2019-02-03T11:10:44.463Z,23.37
2019-02-03T11:13:13.016Z,23.37
2019-02-03T11:15:41.697Z,21.07
2019-02-03T11:18:10.621Z,20.17
2019-02-03T11:20:39.320Z,26.87
2019-02-03T11:23:07.855Z,21.00
2019-02-03T11:25:36.492Z,17.30
2019-02-03T11:28:05.842Z,17.47
2019-02-03T11:30:34.711Z,16.37
2019-02-03T11:33:05.184Z,16.03
2019-02-03T11:35:34.522Z,10.37
2019-02-03T11:38:03.404Z,13.90
2019-02-03T11:40:37.123Z,14.67
2019-02-03T11:43:06.424Z,12.97
2019-02-03T11:45:37.506Z,11.03
2019-02-03T11:48:10.287Z,13.10
2019-02-03T11:50:43.180Z,18.20
2019-02-03T11:53:13.968Z,17.20
2019-02-03T11:55:42.513Z,14.37
2019-02-03T11:58:12.140Z,11.77
2019-02-03T12:00:52.691Z,37.13
2019-02-03T12:03:21.219Z,13.00
2019-02-03T12:05:49.817Z,9.60
2019-02-03T12:08:18.355Z,7.73
2019-02-03T12:10:47.864Z,16.87
2019-02-03T12:13:16.859Z,13.20
2019-02-03T12:15:47.927Z,14.23
2019-02-03T12:18:16.606Z,13.03
2019-02-03T12:20:45.200Z,9.80
2019-02-03T12:23:13.637Z,7.23
2019-02-03T12:25:43.730Z,13.03
2019-02-03T12:28:12.596Z,9.53
2019-02-03T12:30:41.210Z,10.40
2019-02-03T12:33:09.855Z,9.00
2019-02-03T12:35:38.468Z,9.07
2019-02-03T12:38:07.154Z,7.60
2019-02-03T12:40:39.148Z,11.00
2019-02-03T12:43:08.045Z,7.50
2019-02-03T12:45:37.032Z,10.53
2019-02-03T12:48:08.036Z,7.07
2019-02-03T12:50:36.839Z,5.47
2019-02-03T12:53:06.171Z,6.03
2019-02-03T12:55:34.924Z,6.63
2019-02-03T12:58:03.527Z,6.10
2019-02-03T13:00:36.847Z,5.63
2019-02-03T13:03:07.289Z,6.70
2019-02-03T13:05:39.374Z,5.40
2019-02-03T13:08:27.430Z,6.07
2019-02-03T13:10:56.026Z,3.33
2019-02-03T13:13:24.677Z,3.27
2019-02-03T13:15:53.344Z,3.20
2019-02-03T13:18:22.294Z,3.50
2019-02-03T13:20:50.803Z,4.10
2019-02-03T13:23:19.397Z,3.43
2019-02-03T13:25:48.083Z,11.40
2019-02-03T13:28:16.589Z,4.93
2019-02-03T13:30:47.627Z,5.70
2019-02-03T13:33:35.418Z,7.50
2019-02-03T13:36:07.179Z,4.80
2019-02-03T13:38:35.617Z,6.57
2019-02-03T13:41:05.619Z,2.93
2019-02-03T13:43:36.656Z,2.10
2019-02-03T13:46:11.343Z,5.43
2019-02-03T13:48:39.859Z,6.30
2019-02-03T13:51:09.025Z,2.93
2019-02-03T13:53:37.927Z,3.20
2019-02-03T13:56:07.488Z,5.73
2019-02-03T13:58:37.419Z,3.93
2019-02-03T14:01:06.225Z,6.53
2019-02-03T14:03:34.837Z,6.77
2019-02-03T14:06:03.565Z,7.00
2019-02-03T14:08:32.217Z,8.30
2019-02-03T14:11:00.906Z,10.90
2019-02-03T14:13:29.542Z,4.63
2019-02-03T14:16:01.308Z,4.23
2019-02-03T14:18:29.882Z,6.10
2019-02-03T14:21:01.380Z,4.03
2019-02-03T14:23:29.974Z,10.50
2019-02-03T14:26:04.971Z,7.33
2019-02-03T14:28:33.491Z,3.80
2019-02-03T14:31:02.006Z,4.83
2019-02-03T14:33:30.927Z,6.73
2019-02-03T14:35:59.485Z,3.40
2019-02-03T14:38:27.947Z,4.53
2019-02-03T14:40:56.533Z,4.63
2019-02-03T14:43:25.064Z,4.63
2019-02-03T14:45:53.495Z,3.40
2019-02-03T14:48:22.315Z,6.00
2019-02-03T14:50:50.825Z,5.37
2019-02-03T14:53:19.433Z,4.03
2019-02-03T14:55:47.874Z,3.60
2019-02-03T14:58:16.461Z,5.60
2019-02-03T15:00:47.323Z,8.40
2019-02-03T15:03:17.829Z,3.60
2019-02-03T15:05:46.540Z,5.23
2019-02-03T15:08:15.199Z,3.30
2019-02-03T15:10:43.776Z,8.53
2019-02-03T15:13:14.543Z,8.17
2019-02-03T15:15:42.695Z,3.13
2019-02-03T15:18:11.230Z,4.30
2019-02-03T15:20:39.804Z,7.67
2019-02-03T15:23:08.482Z,3.27
2019-02-03T15:25:37.220Z,6.60
2019-02-03T15:28:10.412Z,6.03
2019-02-03T15:30:40.827Z,3.13
2019-02-03T15:33:09.421Z,4.33
2019-02-03T15:35:38.098Z,3.53
2019-02-03T15:38:07.678Z,4.67
2019-02-03T15:40:36.284Z,3.40
2019-02-03T15:43:05.913Z,5.83
2019-02-03T15:45:34.574Z,2.87
2019-02-03T15:48:03.156Z,9.17
2019-02-03T15:50:32.664Z,3.63
2019-02-03T15:53:01.512Z,3.60
2019-02-03T15:55:35.117Z,6.80
2019-02-03T15:58:04.559Z,4.30
2019-02-03T16:00:39.768Z,4.17
2019-02-03T16:03:09.499Z,4.70
2019-02-03T16:05:38.202Z,4.73
2019-02-03T16:08:08.142Z,7.73
2019-02-03T16:10:36.614Z,5.13
2019-02-03T16:13:08.521Z,6.10
2019-02-03T16:15:37.112Z,6.30
2019-02-03T16:18:12.948Z,4.03
2019-02-03T16:20:41.852Z,3.80
2019-02-03T16:23:10.558Z,4.07
2019-02-03T16:25:39.095Z,4.47
2019-02-03T16:28:07.708Z,4.43
2019-02-03T16:30:38.593Z,6.57
2019-02-03T16:33:09.408Z,6.10
2019-02-03T16:35:38.295Z,6.10
2019-02-03T16:38:07.666Z,10.00
2019-02-03T16:40:36.295Z,3.93
2019-02-03T16:43:05.478Z,3.20
2019-02-03T16:45:34.672Z,4.70
2019-02-03T16:48:03.677Z,4.93
2019-02-03T16:50:32.700Z,3.23
2019-02-03T16:53:05.651Z,5.17
2019-02-03T16:55:34.162Z,4.77
2019-02-03T16:58:02.692Z,3.70
2019-02-03T17:00:31.809Z,3.87
2019-02-03T17:03:00.552Z,5.63
2019-02-03T17:05:30.629Z,3.10
2019-02-03T17:08:01.279Z,7.13
2019-02-03T17:10:29.840Z,4.07
2019-02-03T17:12:58.564Z,11.97
2019-02-03T17:15:29.584Z,4.20
2019-02-03T17:17:58.660Z,5.10
2019-02-03T17:20:27.249Z,4.83
2019-02-03T17:22:56.001Z,4.83
2019-02-03T17:25:33.753Z,5.93
2019-02-03T17:28:02.433Z,5.90
2019-02-03T17:30:31.430Z,4.80
2019-02-03T17:33:00.979Z,6.60
2019-02-03T17:35:29.888Z,5.10
2019-02-03T17:37:58.406Z,5.03
2019-02-03T17:40:27.088Z,4.50
2019-02-03T17:42:55.739Z,7.20
2019-02-03T17:45:26.053Z,4.47
2019-02-03T17:47:55.738Z,5.20
2019-02-03T17:50:31.838Z,4.60
2019-02-03T17:53:00.346Z,8.10
2019-02-03T17:55:29.081Z,5.63
2019-02-03T17:57:59.813Z,5.13
2019-02-03T18:00:32.060Z,5.40
2019-02-03T18:03:00.728Z,4.10
2019-02-03T18:05:29.303Z,6.80
2019-02-03T18:07:57.891Z,4.30
2019-02-03T18:10:26.477Z,5.27
2019-02-03T18:12:55.070Z,5.87
2019-02-03T18:15:23.593Z,6.40
2019-02-03T18:17:52.106Z,5.77
2019-02-03T18:20:26.054Z,4.60
2019-02-03T18:22:54.546Z,5.30
2019-02-03T18:25:23.467Z,4.97
2019-02-03T18:27:51.986Z,4.60
2019-02-03T18:30:22.952Z,5.73
2019-02-03T18:32:51.673Z,4.77
2019-02-03T18:35:20.119Z,5.40
2019-02-03T18:37:48.636Z,6.73
2019-02-03T18:40:20.085Z,4.67
2019-02-03T18:42:48.962Z,10.27
2019-02-03T18:45:20.281Z,5.10
2019-02-03T18:47:48.849Z,9.10
2019-02-03T18:50:24.405Z,6.23
2019-02-03T18:52:53.629Z,15.27
2019-02-03T18:55:37.140Z,8.30
2019-02-03T18:58:06.331Z,8.57
2019-02-03T19:00:36.969Z,9.53
2019-02-03T19:03:07.418Z,8.50
2019-02-03T19:05:39.076Z,6.63
2019-02-03T19:08:07.633Z,8.50
2019-02-03T19:10:36.193Z,10.70
2019-02-03T19:13:05.778Z,6.07
2019-02-03T19:15:35.626Z,5.93
2019-02-03T19:18:04.884Z,9.83
2019-02-03T19:20:44.285Z,10.50
2019-02-03T19:23:13.871Z,6.33
2019-02-03T19:25:43.498Z,7.40
2019-02-03T19:28:12.312Z,9.00
2019-02-03T19:30:40.897Z,9.53
2019-02-03T19:33:09.517Z,13.17
2019-02-03T19:35:38.091Z,7.93
2019-02-03T19:38:07.579Z,7.10
2019-02-03T19:40:39.480Z,8.40
2019-02-03T19:43:08.983Z,6.97
2019-02-03T19:45:43.550Z,7.87
2019-02-03T19:48:12.279Z,8.10
2019-02-03T19:50:42.436Z,6.87
2019-02-03T19:53:12.290Z,8.73
2019-02-03T19:55:41.304Z,7.10
2019-02-03T19:58:10.110Z,18.80
2019-02-03T20:00:43.730Z,15.03
2019-02-03T20:03:12.329Z,6.90
2019-02-03T20:05:42.892Z,9.38
2019-02-03T20:08:11.409Z,8.47
2019-02-03T20:10:40.073Z,11.55
2019-02-03T20:13:08.656Z,9.27
2019-02-03T20:15:37.285Z,7.33
2019-02-03T20:29:38.907Z,9.30
2019-02-03T20:32:07.432Z,6.35
2019-02-03T20:34:36.193Z,7.27
2019-02-03T20:37:05.086Z,8.37
2019-02-03T20:39:33.754Z,6.60
2019-02-03T20:42:02.372Z,7.50
2019-02-03T20:44:30.802Z,7.33
2019-02-03T20:47:01.283Z,7.23
2019-02-03T20:49:31.172Z,10.57
2019-02-03T20:51:59.706Z,11.50
2019-02-03T20:54:28.211Z,7.47
2019-02-03T20:56:58.271Z,8.93
2019-02-03T20:59:26.788Z,8.13
2019-02-03T21:01:55.270Z,21.70
2019-02-03T21:04:24.083Z,9.50
2019-02-03T21:06:52.776Z,13.23
2019-02-03T21:09:21.331Z,8.43
2019-02-03T21:11:51.416Z,8.73
2019-02-03T21:14:19.919Z,6.30
2019-02-03T21:16:48.447Z,9.70
2019-02-03T21:19:17.328Z,12.00
2019-02-03T21:21:45.994Z,10.77
2019-02-03T21:24:14.622Z,10.60
2019-02-03T21:26:43.149Z,9.97
2019-02-03T21:29:14.531Z,12.17
2019-02-03T21:31:42.995Z,12.70
2019-02-03T21:34:11.841Z,9.60
2019-02-03T21:36:40.303Z,13.67
2019-02-03T21:39:09.199Z,8.87
2019-02-03T21:41:37.898Z,13.63
2019-02-03T21:44:06.424Z,9.63
2019-02-03T21:46:34.939Z,9.90
2019-02-03T21:49:03.671Z,11.67
2019-02-03T21:51:32.148Z,9.47
2019-02-03T21:54:00.616Z,11.00
2019-02-03T21:56:29.211Z,8.23
2019-02-03T21:58:57.766Z,8.93
2019-02-03T22:01:26.253Z,9.53
2019-02-03T22:03:54.975Z,10.38
2019-02-03T22:06:23.456Z,10.30
2019-02-03T22:08:51.926Z,13.83
2019-02-03T22:11:20.415Z,10.17
2019-02-03T22:13:48.895Z,10.78
2019-02-03T22:16:17.398Z,9.10
2019-02-03T22:18:46.164Z,10.73
2019-02-03T22:21:14.604Z,21.13
2019-02-03T22:23:43.070Z,8.30
2019-02-03T22:26:12.005Z,10.30
2019-02-03T22:28:40.532Z,10.60
2019-02-03T22:31:08.985Z,9.40
2019-02-03T22:33:37.584Z,11.57
2019-02-03T22:36:14.972Z,16.93
2019-02-03T22:38:43.575Z,16.10
2019-02-03T22:41:12.153Z,14.37
2019-02-03T22:43:43.925Z,17.70
2019-02-03T22:46:12.361Z,14.43
2019-02-03T22:48:40.890Z,15.67
2019-02-03T22:51:09.395Z,10.10
2019-02-03T22:53:37.838Z,22.27
2019-02-03T22:56:06.871Z,14.10
2019-02-03T22:58:35.587Z,11.60
2019-02-03T23:01:07.189Z,10.53
2019-02-03T23:03:41.590Z,16.63
2019-02-03T23:06:10.410Z,16.00
2019-02-03T23:08:38.855Z,10.93
2019-02-03T23:11:07.511Z,12.83
2019-02-03T23:13:36.291Z,11.33
2019-02-03T23:16:05.291Z,13.90
2019-02-03T23:18:33.867Z,11.70
2019-02-03T23:21:03.439Z,17.13
2019-02-03T23:23:32.013Z,14.20
2019-02-03T23:26:01.500Z,11.93
2019-02-03T23:28:29.934Z,13.57
2019-02-03T23:30:58.411Z,19.17
2019-02-03T23:33:26.862Z,15.53
2019-02-03T23:35:55.384Z,13.90
2019-02-03T23:38:23.883Z,21.63
2019-02-03T23:40:52.407Z,15.40
2019-02-03T23:43:20.926Z,16.37
2019-02-03T23:45:49.379Z,13.50
2019-02-03T23:48:17.810Z,14.20
2019-02-03T23:50:46.264Z,12.73
2019-02-03T23:53:14.693Z,20.23
2019-02-03T23:55:43.144Z,18.33
2019-02-03T23:58:11.792Z,15.70
